Nearby METAR Reports

 

KMGY - Dayton, Ohio, USA
Distance from station: N 3mi, 5km
Updated: Sun, 23-Sep-2018 4:53am EDT
Clear
Clear
 Wind from ENE
Wind: ENE 8 mph , 13 km/h
Temperature: 57°F , 14°C
Dew Point: 52°F , 11°C
Humidity: 82%
Barometer: 30.13 inHg , 1020.3 hPa
Clouds: Clear
Visibility: 10 miles , 16 km
2018/09/23 08:53 KMGY 230853Z AUTO 07007KT 10SM CLR 14/11 A3013 RMK AO2 SLP201 T01390111 56008
KMWO - Middletown/Hook, Ohio, USA
Distance from station: W 9mi, 14km
Updated: Sun, 23-Sep-2018 4:50am EDT
Clear
Clear
 Wind from NNE
Wind: NNE 3 mph , 6 km/h
Temperature: 57°F , 14°C
Dew Point: 54°F , 12°C
Humidity: 88%
Barometer: 30.14 inHg , 1020.7 hPa
Clouds: Clear
Visibility: 10 miles , 16 km
2018/09/23 08:50 KMWO 230850Z AUTO 03003KT 10SM CLR 14/12 A3014 RMK AO2 T01370123
 
KHAO - Hamilton, Ohio, USA
Distance from station: SW 20mi, 32km
Updated: Sun, 23-Sep-2018 4:53am EDT
Clear
Clear
 Wind from ENE
Wind: ENE 3 mph , 6 km/h
Temperature: 57°F , 14°C
Dew Point: 54°F , 12°C
Humidity: 88%
Barometer: 30.14 inHg , 1020.7 hPa
Clouds: Clear
Visibility: 10 miles , 16 km
2018/09/23 08:53 KHAO 230853Z AUTO 07003KT 10SM CLR 14/12 A3014 RMK AO2 SLP204 T01390122 58009
KFFO - Wright Paterson, Ohio, USA
Distance from station: NNE 21mi, 34km
Updated: Sun, 23-Sep-2018 4:56am EDT
Clear
Clear
 Wind from NNE
Wind: NNE 3 mph , 6 km/h
Temperature: 54°F , 12°C
Dew Point: 52°F , 11°C
Humidity: 94%
Barometer: 30.14 inHg , 1020.7 hPa
Clouds: Clear
Visibility: 10 miles , 16 km
2018/09/23 08:56 KFFO 230856Z AUTO 03003KT 10SM CLR 12/11 A3014 RMK AO2 SLP209 T01240105 57010 $
 
KDAY - Dayton, Ohio, USA
Distance from station: N 24mi, 39km
Updated: Sun, 23-Sep-2018 4:56am EDT
Mostly cloudy
Mostly cloudy
 Wind from NE
Wind: NE 5 mph , 7 km/h
Temperature: 52°F , 11°C
Dew Point: 52°F , 11°C
Humidity: 100%
Barometer: 30.16 inHg , 1021.3 hPa
Clouds: Mostly cloudy
Visibility: 10 miles , 16 km
Cloud details: Mostly cloudy 25000 ft
2018/09/23 08:56 KDAY 230856Z 05004KT 10SM BKN250 11/11 A3016 RMK AO2 SLP210 T01110106 56009
KILN - Wilmington, Ohio, USA
Distance from station: ESE 25mi, 39km
Updated: Sun, 23-Sep-2018 4:54am EDT
Clear
Clear
 Wind from ENE
Wind: ENE 6 mph , 9 km/h
Temperature: 54°F , 12°C
Dew Point: 54°F , 12°C
Humidity: 100%
Barometer: 30.13 inHg , 1020.3 hPa
Clouds: Clear
Visibility: 10 miles , 16 km
2018/09/23 08:54 KILN 230854Z AUTO 07005KT 10SM CLR 12/12 A3013 RMK AO2 SLP208 T01220122 56010
 
KSGH - Springfield Muni, Ohio, USA
Distance from station: NE 29mi, 46km
Updated: Sun, 23-Sep-2018 4:56am EDT
Clear
Clear
 Wind from ENE
Wind: ENE 7 mph , 11 km/h
Temperature: 54°F , 12°C
Dew Point: 52°F , 11°C
Humidity: 94%
Barometer: 30.14 inHg , 1020.7 hPa
Clouds: Clear
Visibility: 10 miles , 16 km
2018/09/23 08:56 KSGH 230856Z AUTO 07006KT 10SM CLR 12/11 A3014 RMK AO2 SLP209 T01170111 56012 $
KI69 - Batavia, Ohio, USA
Distance from station: S 32mi, 52km
Updated: Sun, 23-Sep-2018 4:57am EDT
Overcast
Overcast
 Wind from calm
Wind: Calm
Temperature: 57°F , 14°C
Dew Point: 55°F , 13°C
Humidity: 94%
Barometer: 30.13 inHg , 1020.3 hPa
Clouds: Overcast
Visibility: 10 miles , 16 km
Cloud details: Overcast 5000 ft
2018/09/23 08:57 KI69 230857Z AUTO 00000KT 10SM OVC050 14/13 A3013 RMK AO2 T01400131
 
KLUK - Cincinnat/Lunken, Ohio, USA
Distance from station: SSW 33mi, 53km
Updated: Sun, 23-Sep-2018 4:53am EDT
Overcast
Overcast
 Wind from NE
Wind: NE 5 mph , 7 km/h
Temperature: 57°F , 14°C
Dew Point: 57°F , 14°C
Humidity: 100%
Barometer: 30.12 inHg , 1020 hPa
Clouds: Overcast
Visibility: 10 miles , 16 km
Cloud details: Mostly cloudy 6000 ft
Overcast 7000 ft
2018/09/23 08:53 KLUK 230853Z AUTO 05004KT 10SM BKN060 OVC070 14/14 A3012 RMK AO2 SLP199 T01440139 58011
KCVG - Covington, Kentucky, USA
Distance from station: SSW 42mi, 67km
Updated: Sun, 23-Sep-2018 4:52am EDT
Overcast
Overcast
 Wind from ENE
Wind: ENE 8 mph , 13 km/h
Temperature: 57°F , 14°C
Dew Point: 55°F , 13°C
Humidity: 94%
Barometer: 30.11 inHg , 1019.6 hPa
Clouds: Overcast
Visibility: 10 miles , 16 km
Cloud details: Partly cloudy 3400 ft
Overcast 5500 ft
2018/09/23 08:52 KCVG 230852Z 07007KT 10SM SCT034 OVC055 14/13 A3011 RMK AO2 SLP191 T01440128 58009
 
KVES - Versailles, Ohio, USA
Distance from station: NNW 47mi, 76km
Updated: Sun, 23-Sep-2018 5:00am EDT
Clear
Clear
 Wind from calm
Wind: Calm
Temperature: 50°F , 10°C
Dew Point: 50°F , 10°C
Humidity: 100%
Barometer: 30.16 inHg , 1021.3 hPa
Clouds: Clear
Visibility: 10 miles , 16 km
2018/09/23 09:00 KVES 230900Z AUTO 00000KT 10SM CLR 10/10 A3016 RMK AO2